Scaly Mountain, NC (28775)

8:52 AM EDT on April 26, 2015 (GMT -0400)
Sky Valley - Durpo | | Change Station
CLOSE
Current Station
Personal Weather Station
Location: Sky Valley, GA
Elevation: 3609 ft
Nearby Weather Stations

Elev 3609 ft 34.98 °N, 83.33 °W | Updated 1 minute ago

Mostly Cloudy
Mostly Cloudy
59.6 °F
Feels Like 59.6 °F
N
1.0
Wind Variable Wind from SSW
Gusts 2.0 mph

Today
High -- | Low -- °F
--% Chance of Precip.
Yesterday
High -- | Low -- °F
Precip. -- in
6:48 AM 8:14 PM
First Quarter, 55% visible
Pressure 29.68 in
Visibility 0.5 miles
Clouds
Dew Point 51 °F
Humidity 72%
Rainfall 0.07 in
Snow Depth Not available.
UV 0.0 out of 12
Pollen 8.00 out of 12
Air Quality Not available.
Flu Activity Sporadic
METAR K1A5 261235Z AUTO 00000KT 1/2SM FG 11/11 A2968 RMK AO2 T01120112

More Conditions Fewer Conditions

Pressure 29.68 in
Visibility 0.5 miles
Clouds
Dew Point 51 °F
Humidity 72%
Rainfall 0.07 in
Snow Depth Not available.
UV 0.0 out of 12
Pollen 8.00 out of 12
Air Quality Not available.
Flu Activity Sporadic
METAR K1A5 261235Z AUTO 00000KT 1/2SM FG 11/11 A2968 RMK AO2 T01120112

More Conditions Fewer Conditions

The full scope of the disaster following a powerful 7.8-magnitude earthquake in Nepal may not come into view for days, but global charities are already sending emergency aid. Click to see how you can help.

10-Day Weather Forecast

Almanac

Astronomy

Apr. 26, 2015 Rise Set
Actual Time
Civil Twilight
Nautical Twilight
Astronomical Twilight
Moon
Length of Visible Light
Length of Day
Tomorrow will be .
, % of the Moon is Illuminated

Today's Extremes

State Highs State Lows

Community

WunderPhotos

Upload Photos

1,816,978 photos uploaded!

WunderBlogs® & News

Nearby

Air Quality

  Air Quality AQ Index Pollutant
Not available.

Snow Depth

Station Depth Elevation

Earthquake Activity

City Distance Mag. Time & Date
Minimum magnitude displayed is 2.5.

Coastal Water Temperatures

Place Temperature

Stations

Nearby Weather Stations

Station Location Temp. Windchill Dew Point Humidity Wind Precip. Elev Updated Type